Time;durP1;ratioP1;P1;durP2;ratioP2;P2;SDS_P1;SDS_P2;PMS_P1;PMS_P2;Temp;Humidity;BMP_temperature;BMP_pressure;BME280_temperature;BME280_humidity;BME280_pressure;Samples;Min_cycle;Max_cycle;Signal;HPM_P1;HPM_P2
2022/02/17 00:00:51;;;;;;;65.80;44.22;;;;;;;;;;4966365;28;20034;-53
2022/02/17 00:03:17;;;;;;;69.50;45.80;;;;;;;;;;4966359;28;20117;-54
2022/02/17 00:05:43;;;;;;;73.13;47.47;;;;;;;;;;4966595;28;20044;-52
2022/02/17 00:08:09;;;;;;;66.38;44.63;;;;;;;;;;4981273;28;20474;-53
2022/02/17 00:10:36;;;;;;;71.25;46.63;;;;;;;;;;4966216;28;20039;-54
2022/02/17 00:13:03;;;;;;;73.97;45.95;;;;;;;;;;4965983;28;20053;-54
2022/02/17 00:15:30;;;;;;;59.25;41.35;;;;;;;;;;4965656;28;20467;-54
2022/02/17 00:17:57;;;;;;;79.47;48.63;;;;;;;;;;4966286;28;20073;-54
2022/02/17 00:20:23;;;;;;;73.85;48.22;;;;;;;;;;4966954;28;20034;-54
2022/02/17 00:22:50;;;;;;;72.03;49.78;;;;;;;;;;4966854;28;20271;-53
2022/02/17 00:25:16;;;;;;;74.63;45.17;;;;;;;;;;4966095;28;20080;-53
2022/02/17 00:27:44;;;;;;;75.80;50.90;;;;;;;;;;4966221;28;20037;-53
2022/02/17 00:30:11;;;;;;;67.68;47.58;;;;;;;;;;4965888;28;20602;-52
2022/02/17 00:32:37;;;;;;;70.13;47.13;;;;;;;;;;4965677;28;20031;-52
2022/02/17 00:35:07;;;;;;;73.05;48.15;;;;;;;;;;4965785;28;20051;-52
2022/02/17 00:37:33;;;;;;;65.68;45.30;;;;;;;;;;4965708;28;20429;-52
2022/02/17 00:39:59;;;;;;;74.00;47.50;;;;;;;;;;4965320;28;20852;-52
2022/02/17 00:42:25;;;;;;;68.40;47.47;;;;;;;;;;4965607;28;20031;-52
2022/02/17 00:44:52;;;;;;;64.15;45.85;;;;;;;;;;4965079;28;20137;-51
2022/02/17 00:47:18;;;;;;;70.82;46.08;;;;;;;;;;4965502;28;20368;-52
2022/02/17 00:49:44;;;;;;;75.45;49.55;;;;;;;;;;4976341;28;20023;-52
2022/02/17 00:52:10;;;;;;;70.20;47.20;;;;;;;;;;4976097;28;20221;-52
2022/02/17 00:54:36;;;;;;;71.55;45.78;;;;;;;;;;4976026;28;20019;-50
2022/02/17 00:57:03;;;;;;;72.00;47.35;;;;;;;;;;4975930;28;20102;-53
2022/02/17 00:59:29;;;;;;;65.03;44.40;;;;;;;;;;4974748;28;20027;-52
2022/02/17 01:01:56;;;;;;;66.70;45.03;;;;;;;;;;4975869;28;20031;-52
2022/02/17 01:04:24;;;;;;;66.57;44.67;;;;;;;;;;4975860;28;20395;-51
2022/02/17 01:06:53;;;;;;;61.22;42.17;;;;;;;;;;4976005;28;20027;-52
2022/02/17 01:09:19;;;;;;;72.88;46.92;;;;;;;;;;4975919;28;20031;-53
2022/02/17 01:11:45;;;;;;;73.32;49.30;;;;;;;;;;4975933;28;20034;-52
2022/02/17 01:14:11;;;;;;;70.78;47.10;;;;;;;;;;4975627;28;20023;-52
2022/02/17 01:16:40;;;;;;;70.55;46.90;;;;;;;;;;4975433;28;20035;-53
2022/02/17 01:19:06;;;;;;;64.50;43.00;;;;;;;;;;4975571;28;20023;-53
2022/02/17 01:21:33;;;;;;;56.08;40.17;;;;;;;;;;4975760;28;20030;-53
2022/02/17 01:23:59;;;;;;;56.28;37.78;;;;;;;;;;4975587;28;20036;-53
2022/02/17 01:26:25;;;;;;;65.18;41.92;;;;;;;;;;4975532;28;20050;-53
2022/02/17 01:28:51;;;;;;;59.00;39.08;;;;;;;;;;4975437;28;20026;-52
2022/02/17 01:31:20;;;;;;;57.50;38.22;;;;;;;;;;4975212;28;20038;-53
2022/02/17 01:33:46;;;;;;;58.67;38.35;;;;;;;;;;4975185;28;20023;-53
2022/02/17 01:36:15;;;;;;;57.97;38.42;;;;;;;;;;5004774;28;20084;-52
2022/02/17 01:38:46;;;;;;;54.67;38.47;;;;;;;;;;5014426;28;20029;-53
2022/02/17 01:41:13;;;;;;;57.33;37.13;;;;;;;;;;5014371;28;20049;-52
2022/02/17 01:43:39;;;;;;;55.80;37.13;;;;;;;;;;5014080;28;20034;-53
2022/02/17 01:46:05;;;;;;;58.28;37.95;;;;;;;;;;5013896;28;20421;-53
2022/02/17 01:48:32;;;;;;;59.00;36.92;;;;;;;;;;5014007;28;20026;-53
2022/02/17 01:50:58;;;;;;;53.28;34.97;;;;;;;;;;5013919;28;20100;-53
2022/02/17 01:53:25;;;;;;;54.13;35.25;;;;;;;;;;5014091;28;20017;-54
2022/02/17 01:55:53;;;;;;;59.08;38.10;;;;;;;;;;5013645;28;20041;-54
2022/02/17 01:58:19;;;;;;;56.25;36.42;;;;;;;;;;5013707;28;20174;-54
2022/02/17 02:00:46;;;;;;;57.58;38.97;;;;;;;;;;5013933;28;20025;-55
2022/02/17 02:03:12;;;;;;;62.25;43.90;;;;;;;;;;5013823;28;20026;-54
2022/02/17 02:05:39;;;;;;;65.97;42.42;;;;;;;;;;5013657;28;20041;-54
2022/02/17 02:08:06;;;;;;;58.80;40.38;;;;;;;;;;5013754;28;20026;-54
2022/02/17 02:10:32;;;;;;;52.95;37.47;;;;;;;;;;5013692;28;20026;-54
2022/02/17 02:12:59;;;;;;;61.58;40.05;;;;;;;;;;5013621;28;20048;-54
2022/02/17 02:15:28;;;;;;;60.42;39.33;;;;;;;;;;5013355;28;20032;-54
2022/02/17 02:17:54;;;;;;;60.70;40.13;;;;;;;;;;5013676;28;20147;-54
2022/02/17 02:20:20;;;;;;;63.92;42.03;;;;;;;;;;5013385;28;20037;-54
2022/02/17 02:22:47;;;;;;;64.80;40.63;;;;;;;;;;5013393;28;20030;-54
2022/02/17 02:25:13;;;;;;;62.10;41.58;;;;;;;;;;5013532;28;20117;-54
2022/02/17 02:27:40;;;;;;;63.95;40.55;;;;;;;;;;5013547;28;20470;-52
2022/02/17 02:30:09;;;;;;;59.22;39.85;;;;;;;;;;5013120;28;20080;-54
2022/02/17 02:32:35;;;;;;;57.78;39.55;;;;;;;;;;5013324;28;20058;-53
2022/02/17 02:35:01;;;;;;;61.15;39.13;;;;;;;;;;5013170;28;20554;-54
2022/02/17 02:37:27;;;;;;;64.95;41.67;;;;;;;;;;5013287;28;20073;-53
2022/02/17 02:39:54;;;;;;;62.03;39.72;;;;;;;;;;5013353;28;20018;-54
2022/02/17 02:42:23;;;;;;;63.97;41.00;;;;;;;;;;5013279;28;20124;-53
2022/02/17 02:44:51;;;;;;;61.25;39.88;;;;;;;;;;5012962;28;20470;-53
2022/02/17 02:47:20;;;;;;;67.97;41.60;;;;;;;;;;5013080;28;20029;-52
2022/02/17 02:49:46;;;;;;;58.72;38.70;;;;;;;;;;5013151;28;20022;-53
2022/02/17 02:52:12;;;;;;;60.40;39.65;;;;;;;;;;4995538;28;20381;-52
2022/02/17 02:54:38;;;;;;;60.05;38.70;;;;;;;;;;5013021;28;20026;-53
2022/02/17 02:57:04;;;;;;;61.22;38.20;;;;;;;;;;5012882;28;20482;-53
2022/02/17 02:59:30;;;;;;;63.08;38.97;;;;;;;;;;5013203;28;20026;-54
2022/02/17 03:01:59;;;;;;;56.38;36.33;;;;;;;;;;5013249;28;20033;-54
2022/02/17 03:04:25;;;;;;;54.85;36.85;;;;;;;;;;5013483;28;20167;-54
2022/02/17 03:06:51;;;;;;;60.30;37.67;;;;;;;;;;5013361;28;20695;-54
2022/02/17 03:09:17;;;;;;;60.58;38.38;;;;;;;;;;5016591;28;20389;-55
2022/02/17 03:11:45;;;;;;;54.92;36.45;;;;;;;;;;5016972;28;20072;-54
2022/02/17 03:14:11;;;;;;;56.95;37.08;;;;;;;;;;5016875;28;20022;-53
2022/02/17 03:16:38;;;;;;;50.72;34.70;;;;;;;;;;5016712;28;20026;-54
2022/02/17 03:19:06;;;;;;;53.92;34.88;;;;;;;;;;5016837;28;20029;-55
2022/02/17 03:21:32;;;;;;;50.55;35.40;;;;;;;;;;5016745;28;20044;-54
2022/02/17 03:23:58;;;;;;;50.83;34.72;;;;;;;;;;5016680;28;20033;-53
2022/02/17 03:26:24;;;;;;;50.83;34.60;;;;;;;;;;5016682;28;20029;-54
2022/02/17 03:28:51;;;;;;;50.67;35.70;;;;;;;;;;5016488;28;20092;-54
2022/02/17 03:31:21;;;;;;;51.80;35.97;;;;;;;;;;5016650;28;20049;-54
2022/02/17 03:33:47;;;;;;;54.17;37.15;;;;;;;;;;5016590;28;20026;-54
2022/02/17 03:36:13;;;;;;;56.40;36.90;;;;;;;;;;5016258;28;20061;-54
2022/02/17 03:38:39;;;;;;;52.88;34.30;;;;;;;;;;4998779;28;20029;-54
2022/02/17 03:41:05;;;;;;;48.15;33.15;;;;;;;;;;5016246;28;20447;-52
2022/02/17 03:43:31;;;;;;;47.53;32.47;;;;;;;;;;5016102;28;20021;-54
2022/02/17 03:45:57;;;;;;;60.40;36.78;;;;;;;;;;5016284;28;20026;-55
2022/02/17 03:48:23;;;;;;;68.07;42.72;;;;;;;;;;5016229;28;20029;-55
2022/02/17 03:50:50;;;;;;;59.25;36.65;;;;;;;;;;5016015;28;20026;-55
2022/02/17 03:53:16;;;;;;;47.42;32.83;;;;;;;;;;5016014;28;20030;-54
2022/02/17 03:55:42;;;;;;;48.30;31.63;;;;;;;;;;5015838;28;20042;-54
2022/02/17 03:58:08;;;;;;;47.65;32.53;;;;;;;;;;5015929;28;20036;-54
2022/02/17 04:00:34;;;;;;;46.58;32.75;;;;;;;;;;5015767;28;20021;-55
2022/02/17 04:03:04;;;;;;;43.40;31.95;;;;;;;;;;5016287;28;20131;-54
2022/02/17 04:05:31;;;;;;;45.35;31.55;;;;;;;;;;5015799;28;20022;-55
2022/02/17 04:07:57;;;;;;;48.00;32.88;;;;;;;;;;5015877;28;20034;-54
2022/02/17 04:10:23;;;;;;;47.42;32.72;;;;;;;;;;5015690;28;20046;-54
2022/02/17 04:12:49;;;;;;;50.38;35.40;;;;;;;;;;5015727;28;20022;-54
2022/02/17 04:15:15;;;;;;;48.45;33.78;;;;;;;;;;5015612;28;20097;-54
2022/02/17 04:17:42;;;;;;;49.40;33.72;;;;;;;;;;5015559;28;20088;-55
2022/02/17 04:20:09;;;;;;;50.78;35.08;;;;;;;;;;5014929;28;20076;-55
2022/02/17 04:22:35;;;;;;;51.50;34.42;;;;;;;;;;5015458;28;20022;-55
2022/02/17 04:25:01;;;;;;;51.88;35.45;;;;;;;;;;5015496;28;20026;-54
2022/02/17 04:27:27;;;;;;;52.72;34.55;;;;;;;;;;5015373;28;20026;-54
2022/02/17 04:29:53;;;;;;;53.95;34.67;;;;;;;;;;5015228;28;20021;-54
2022/02/17 04:32:19;;;;;;;50.28;34.50;;;;;;;;;;5015315;28;20555;-53
2022/02/17 04:34:45;;;;;;;51.38;35.92;;;;;;;;;;5015025;28;20061;-54
2022/02/17 04:37:11;;;;;;;51.80;35.50;;;;;;;;;;5015381;28;20034;-54
2022/02/17 04:39:37;;;;;;;51.05;34.08;;;;;;;;;;5015237;28;20434;-52
2022/02/17 04:42:18;;;;;;;51.08;33.55;;;;;;;;;;5015301;28;20030;-52
2022/02/17 04:44:45;;;;;;;62.08;40.38;;;;;;;;;;5014984;28;20040;-53
2022/02/17 04:47:15;;;;;;;54.47;36.05;;;;;;;;;;5014937;28;20036;-53
2022/02/17 04:49:43;;;;;;;55.50;36.03;;;;;;;;;;5015154;28;20100;-53
2022/02/17 04:52:09;;;;;;;66.05;38.88;;;;;;;;;;5015100;28;20034;-53
2022/02/17 04:54:36;;;;;;;63.13;39.20;;;;;;;;;;5014930;28;20270;-51
2022/02/17 04:57:08;;;;;;;62.33;35.97;;;;;;;;;;5014791;28;20034;-53
2022/02/17 04:59:35;;;;;;;103.47;47.17;;;;;;;;;;5015004;28;20232;-53
2022/02/17 05:02:01;;;;;;;101.68;45.60;;;;;;;;;;5014611;28;20022;-53
2022/02/17 05:04:27;;;;;;;70.65;40.75;;;;;;;;;;5014561;28;20040;-52
2022/02/17 05:06:54;;;;;;;54.30;35.22;;;;;;;;;;5014719;28;20101;-53
2022/02/17 05:09:20;;;;;;;45.08;30.75;;;;;;;;;;5014587;28;20030;-53
2022/02/17 05:11:46;;;;;;;52.20;33.47;;;;;;;;;;5014558;28;20119;-53
2022/02/17 05:14:16;;;;;;;48.70;32.80;;;;;;;;;;5014490;28;20489;-53
2022/02/17 05:16:45;;;;;;;42.63;28.95;;;;;;;;;;5014328;28;20200;-53
2022/02/17 05:19:11;;;;;;;45.63;30.60;;;;;;;;;;5014529;28;20025;-53
2022/02/17 05:21:39;;;;;;;75.35;42.75;;;;;;;;;;5014756;28;20052;-53
2022/02/17 05:24:05;;;;;;;68.53;39.05;;;;;;;;;;5014396;28;20032;-55
2022/02/17 05:26:32;;;;;;;68.30;41.45;;;;;;;;;;5014939;28;20358;-54
2022/02/17 05:28:58;;;;;;;35.92;25.25;;;;;;;;;;5014326;28;20034;-54
2022/02/17 05:31:25;;;;;;;40.63;28.70;;;;;;;;;;5013955;28;20096;-54
2022/02/17 05:33:51;;;;;;;39.47;27.67;;;;;;;;;;5014072;28;20022;-54
2022/02/17 05:36:17;;;;;;;40.40;27.65;;;;;;;;;;5013970;28;20049;-53
2022/02/17 05:38:46;;;;;;;37.00;26.20;;;;;;;;;;5013970;28;20030;-54
2022/02/17 05:41:12;;;;;;;41.25;28.33;;;;;;;;;;5013905;28;20410;-53
2022/02/17 05:43:38;;;;;;;46.72;28.90;;;;;;;;;;5014204;28;20112;-53
2022/02/17 05:46:06;;;;;;;50.75;32.50;;;;;;;;;;5014046;28;20247;-54
2022/02/17 05:48:32;;;;;;;46.63;30.15;;;;;;;;;;5013861;28;20050;-53
2022/02/17 05:50:58;;;;;;;40.53;26.10;;;;;;;;;;5013934;28;20061;-54
2022/02/17 05:53:24;;;;;;;39.38;24.73;;;;;;;;;;5013655;28;20026;-53
2022/02/17 05:55:50;;;;;;;78.75;46.08;;;;;;;;;;4996035;28;20457;-53
2022/02/17 05:58:16;;;;;;;64.72;39.60;;;;;;;;;;5014150;28;20034;-54
2022/02/17 06:00:42;;;;;;;54.25;36.42;;;;;;;;;;5013633;28;20033;-54
2022/02/17 06:03:09;;;;;;;41.47;26.25;;;;;;;;;;5013693;28;20064;-53
2022/02/17 06:05:35;;;;;;;32.63;22.08;;;;;;;;;;5013683;28;20478;-54
2022/02/17 06:08:01;;;;;;;40.42;26.38;;;;;;;;;;5013570;28;20029;-48
2022/02/17 06:10:27;;;;;;;40.47;25.65;;;;;;;;;;5013536;28;20037;-45
2022/02/17 06:12:53;;;;;;;53.60;32.15;;;;;;;;;;5013725;28;20481;-51
2022/02/17 06:15:20;;;;;;;44.70;25.80;;;;;;;;;;5013377;28;20095;-52
2022/02/17 06:17:46;;;;;;;32.38;22.52;;;;;;;;;;5013371;28;20116;-51
2022/02/17 06:20:12;;;;;;;36.35;21.55;;;;;;;;;;5013350;28;20032;-51
2022/02/17 06:22:47;;;;;;;29.35;19.13;;;;;;;;;;5013437;28;20105;-51
2022/02/17 06:25:14;;;;;;;33.40;20.17;;;;;;;;;;5013661;28;20120;-51
2022/02/17 06:27:40;;;;;;;32.33;21.70;;;;;;;;;;5013212;28;20029;-52
2022/02/17 06:30:06;;;;;;;36.38;20.90;;;;;;;;;;5013378;28;20033;-52
2022/02/17 06:32:32;;;;;;;31.17;19.30;;;;;;;;;;5013246;28;20077;-51
2022/02/17 06:35:01;;;;;;;37.15;23.40;;;;;;;;;;5013099;28;20405;-51
2022/02/17 06:37:27;;;;;;;36.08;21.48;;;;;;;;;;5013723;28;20125;-52
2022/02/17 06:39:53;;;;;;;46.35;23.83;;;;;;;;;;5013232;28;20022;-51
2022/02/17 06:42:19;;;;;;;49.88;26.58;;;;;;;;;;5012610;28;20097;-51
2022/02/17 06:44:45;;;;;;;39.55;23.45;;;;;;;;;;5013266;28;20433;-51
2022/02/17 06:47:11;;;;;;;30.63;19.17;;;;;;;;;;5013035;28;20025;-51
2022/02/17 06:49:37;;;;;;;30.95;18.13;;;;;;;;;;5013247;28;20030;-51
2022/02/17 06:52:06;;;;;;;40.10;21.05;;;;;;;;;;5013439;28;20057;-52
2022/02/17 06:54:32;;;;;;;34.33;20.63;;;;;;;;;;5013215;28;20056;-52
2022/02/17 06:56:58;;;;;;;40.13;23.33;;;;;;;;;;5012947;28;20038;-52
2022/02/17 06:59:26;;;;;;;35.33;21.23;;;;;;;;;;5013061;28;20069;-51
2022/02/17 07:01:54;;;;;;;40.00;22.88;;;;;;;;;;5012996;28;20036;-52
2022/02/17 07:04:21;;;;;;;47.15;24.48;;;;;;;;;;5013163;28;20359;-51
2022/02/17 07:06:47;;;;;;;45.30;25.23;;;;;;;;;;5013026;28;20084;-50
2022/02/17 07:09:13;;;;;;;44.40;24.02;;;;;;;;;;5013040;28;20022;-51
2022/02/17 07:11:39;;;;;;;48.95;26.05;;;;;;;;;;5012978;28;20085;-52
2022/02/17 07:14:06;;;;;;;46.22;25.20;;;;;;;;;;5012951;28;20050;-52
2022/02/17 07:16:33;;;;;;;35.42;22.85;;;;;;;;;;5012975;28;20092;-51
2022/02/17 07:18:59;;;;;;;32.42;20.00;;;;;;;;;;5013199;28;20052;-52
2022/02/17 07:21:28;;;;;;;30.17;19.13;;;;;;;;;;5013025;28;20142;-51
2022/02/17 07:23:54;;;;;;;26.08;16.77;;;;;;;;;;5012990;28;20449;-52
2022/02/17 07:26:20;;;;;;;20.00;13.82;;;;;;;;;;5013044;28;20460;-51
2022/02/17 07:28:46;;;;;;;23.52;14.80;;;;;;;;;;5012768;28;20022;-51
2022/02/17 07:31:13;;;;;;;19.40;12.27;;;;;;;;;;5012695;28;20382;-50
2022/02/17 07:33:41;;;;;;;21.05;13.52;;;;;;;;;;5012942;28;20117;-51
2022/02/17 07:36:09;;;;;;;21.95;13.95;;;;;;;;;;4995012;28;20046;-51
2022/02/17 07:38:35;;;;;;;20.33;13.98;;;;;;;;;;5012636;28;20037;-51
2022/02/17 07:41:01;;;;;;;17.83;11.90;;;;;;;;;;5012595;28;20046;-50
2022/02/17 07:43:28;;;;;;;22.35;14.40;;;;;;;;;;5012663;28;20060;-51
2022/02/17 07:45:54;;;;;;;19.90;12.18;;;;;;;;;;5012836;28;20057;-52
2022/02/17 07:48:20;;;;;;;21.27;12.50;;;;;;;;;;5012817;28;20104;-52
2022/02/17 07:50:48;;;;;;;27.38;15.20;;;;;;;;;;5012886;28;20022;-52
2022/02/17 07:53:14;;;;;;;22.25;13.52;;;;;;;;;;5012823;28;20053;-53
2022/02/17 07:55:40;;;;;;;32.25;18.15;;;;;;;;;;5014841;28;20030;-51
2022/02/17 07:58:12;;;;;;;29.35;20.35;;;;;;;;;;5015886;28;20482;-52
2022/02/17 08:00:38;;;;;;;27.83;18.13;;;;;;;;;;5016274;28;20036;-53
2022/02/17 08:03:07;;;;;;;63.83;27.52;;;;;;;;;;5016364;28;20053;-54
2022/02/17 08:05:38;;;;;;;128.75;43.03;;;;;;;;;;5016181;28;20080;-53
2022/02/17 08:08:04;;;;;;;106.30;38.47;;;;;;;;;;5015967;28;20363;-52
2022/02/17 08:10:30;;;;;;;121.07;41.20;;;;;;;;;;5015839;28;20386;-52
2022/02/17 08:12:56;;;;;;;73.40;26.85;;;;;;;;;;5015889;28;20022;-52
2022/02/17 08:15:22;;;;;;;71.82;27.02;;;;;;;;;;5015841;28;20116;-52
2022/02/17 08:17:48;;;;;;;45.55;19.35;;;;;;;;;;5015703;28;20038;-52
2022/02/17 08:20:14;;;;;;;48.35;20.00;;;;;;;;;;5015837;28;20030;-51
2022/02/17 08:22:50;;;;;;;44.22;21.45;;;;;;;;;;5015730;28;20030;-52
2022/02/17 08:25:17;;;;;;;30.60;16.98;;;;;;;;;;5015499;28;20025;-52
2022/02/17 08:27:44;;;;;;;31.17;16.50;;;;;;;;;;5015712;28;20057;-52
2022/02/17 08:30:10;;;;;;;31.50;18.83;;;;;;;;;;5015784;28;20018;-51
2022/02/17 08:32:37;;;;;;;29.35;19.00;;;;;;;;;;5015363;28;20541;-51
2022/02/17 08:35:03;;;;;;;19.00;11.90;;;;;;;;;;5015396;28;20053;-52
2022/02/17 08:37:29;;;;;;;14.07;8.57;;;;;;;;;;5015454;28;20125;-51
2022/02/17 08:39:55;;;;;;;17.38;9.95;;;;;;;;;;5015230;28;20354;-52
2022/02/17 08:42:22;;;;;;;33.53;11.77;;;;;;;;;;5015286;28;20116;-52
2022/02/17 08:44:48;;;;;;;30.55;12.68;;;;;;;;;;5015339;28;20166;-55
2022/02/17 08:47:17;;;;;;;34.90;11.80;;;;;;;;;;5015024;28;20033;-56
2022/02/17 08:49:43;;;;;;;25.83;11.50;;;;;;;;;;5014956;28;20522;-53
2022/02/17 08:52:09;;;;;;;27.80;11.95;;;;;;;;;;5015023;28;20366;-52
2022/02/17 08:54:35;;;;;;;17.95;10.63;;;;;;;;;;5014973;28;20040;-54
2022/02/17 08:57:02;;;;;;;22.27;10.85;;;;;;;;;;5014841;28;20026;-50
2022/02/17 08:59:28;;;;;;;20.63;11.48;;;;;;;;;;5014912;28;20359;-52
2022/02/17 09:01:54;;;;;;;26.40;12.65;;;;;;;;;;5014742;28;20030;-51
2022/02/17 09:04:20;;;;;;;16.83;10.43;;;;;;;;;;5015014;28;20053;-49
2022/02/17 09:06:48;;;;;;;15.02;8.98;;;;;;;;;;5014403;28;20049;-52
2022/02/17 09:09:17;;;;;;;12.73;8.70;;;;;;;;;;5014582;28;20022;-50
2022/02/17 09:11:43;;;;;;;14.93;8.32;;;;;;;;;;5014666;28;20026;-52
2022/02/17 09:14:09;;;;;;;14.30;7.60;;;;;;;;;;5014849;28;20041;-50
2022/02/17 09:16:36;;;;;;;21.05;11.55;;;;;;;;;;5014682;28;20061;-51
2022/02/17 09:19:03;;;;;;;12.05;7.60;;;;;;;;;;5014618;28;20060;-50
2022/02/17 09:21:32;;;;;;;11.43;6.97;;;;;;;;;;5014595;28;20022;-50
2022/02/17 09:23:58;;;;;;;9.48;5.60;;;;;;;;;;5014426;28;20526;-51
2022/02/17 09:26:24;;;;;;;8.55;5.75;;;;;;;;;;5014519;28;20025;-51
2022/02/17 09:28:51;;;;;;;11.15;6.57;;;;;;;;;;5014605;28;20049;-48
2022/02/17 09:31:22;;;;;;;12.25;6.63;;;;;;;;;;5014356;28;20544;-51
2022/02/17 09:33:49;;;;;;;11.85;6.20;;;;;;;;;;5014286;28;20068;-50
2022/02/17 09:36:16;;;;;;;9.57;5.68;;;;;;;;;;5013929;28;20042;-52
2022/02/17 09:38:42;;;;;;;15.15;7.22;;;;;;;;;;5014245;28;20061;-52
2022/02/17 09:41:18;;;;;;;10.07;5.93;;;;;;;;;;5021458;28;20026;-52
2022/02/17 09:43:45;;;;;;;9.30;5.60;;;;;;;;;;5021183;28;20355;-51
2022/02/17 09:46:13;;;;;;;10.77;6.13;;;;;;;;;;5024968;28;20025;-50
2022/02/17 09:48:40;;;;;;;8.77;6.10;;;;;;;;;;5020495;28;20088;-51
2022/02/17 09:51:06;;;;;;;11.10;7.18;;;;;;;;;;5023600;28;20021;-49
2022/02/17 09:53:33;;;;;;;10.70;5.90;;;;;;;;;;5021653;28;20101;-53
2022/02/17 09:56:01;;;;;;;8.65;5.18;;;;;;;;;;5023914;28;20030;-52
2022/02/17 09:58:30;;;;;;;8.52;4.10;;;;;;;;;;5021460;28;20608;-52
2022/02/17 10:00:56;;;;;;;8.07;4.60;;;;;;;;;;5021399;28;20485;-49
2022/02/17 10:03:32;;;;;;;9.52;4.70;;;;;;;;;;5006359;28;20037;-50
2022/02/17 10:06:11;;;;;;;6.32;4.13;;;;;;;;;;5026697;28;20378;-54
2022/02/17 10:08:37;;;;;;;6.85;4.28;;;;;;;;;;5024137;28;20500;-51
2022/02/17 10:11:04;;;;;;;8.50;4.60;;;;;;;;;;5031172;28;20099;-51
2022/02/17 10:13:30;;;;;;;5.88;4.20;;;;;;;;;;5033404;28;20032;-51
2022/02/17 10:15:58;;;;;;;8.20;4.30;;;;;;;;;;5033499;28;20033;-50
2022/02/17 10:18:27;;;;;;;7.70;4.65;;;;;;;;;;5032511;28;20059;-51
2022/02/17 10:21:12;;;;;;;9.57;4.63;;;;;;;;;;5033347;28;20045;-52
2022/02/17 10:23:42;;;;;;;8.23;4.70;;;;;;;;;;5033250;28;20462;-51
2022/02/17 10:26:12;;;;;;;9.18;4.90;;;;;;;;;;5033243;28;20040;-52
2022/02/17 10:28:43;;;;;;;8.52;4.50;;;;;;;;;;5033166;28;20036;-51
2022/02/17 10:31:20;;;;;;;9.38;4.80;;;;;;;;;;5033835;28;20151;-50
2022/02/17 10:33:47;;;;;;;9.95;4.88;;;;;;;;;;5033174;28;20036;-50
2022/02/17 10:36:16;;;;;;;8.57;4.97;;;;;;;;;;5018023;28;20088;-49
2022/02/17 10:38:43;;;;;;;13.98;7.32;;;;;;;;;;5013348;28;20176;-50
2022/02/17 10:41:09;;;;;;;15.93;7.07;;;;;;;;;;5013275;28;20029;-51
2022/02/17 10:43:36;;;;;;;10.35;6.28;;;;;;;;;;5013313;28;20049;-49
2022/02/17 10:46:10;;;;;;;18.15;6.18;;;;;;;;;;5013430;28;20018;-48
2022/02/17 10:48:37;;;;;;;10.93;6.15;;;;;;;;;;5013215;28;20030;-53
2022/02/17 10:51:13;;;;;;;11.60;5.50;;;;;;;;;;5013193;28;20118;-50
2022/02/17 10:53:42;;;;;;;6.35;4.18;;;;;;;;;;5013459;28;20022;-50
2022/02/17 10:56:10;;;;;;;10.23;4.05;;;;;;;;;;5013304;28;20030;-53
2022/02/17 10:58:43;;;;;;;12.43;4.30;;;;;;;;;;5013025;28;20042;-50
2022/02/17 11:01:10;;;;;;;9.85;5.25;;;;;;;;;;5013353;28;20101;-50
2022/02/17 11:03:36;;;;;;;10.55;4.80;;;;;;;;;;5013065;28;20546;-52
2022/02/17 11:06:03;;;;;;;14.23;4.40;;;;;;;;;;5013164;28;20552;-52
2022/02/17 11:08:30;;;;;;;9.25;5.32;;;;;;;;;;5013002;28;20084;-50
2022/02/17 11:10:59;;;;;;;15.32;5.10;;;;;;;;;;5013241;28;20054;-52
2022/02/17 11:13:26;;;;;;;11.55;4.22;;;;;;;;;;5013118;28;20036;-52
2022/02/17 11:15:53;;;;;;;7.45;3.45;;;;;;;;;;5013281;28;20452;-52
2022/02/17 11:18:20;;;;;;;9.30;3.50;;;;;;;;;;5013209;28;20430;-52
2022/02/17 11:20:47;;;;;;;14.18;4.03;;;;;;;;;;5013027;28;20389;-52
2022/02/17 11:23:18;;;;;;;5.85;3.67;;;;;;;;;;5012898;28;20435;-52
2022/02/17 11:25:45;;;;;;;9.65;3.35;;;;;;;;;;5012920;28;20034;-52
2022/02/17 11:28:12;;;;;;;10.57;4.13;;;;;;;;;;5012929;28;20061;-52
2022/02/17 11:30:40;;;;;;;7.82;3.50;;;;;;;;;;5016996;28;20022;-52
2022/02/17 11:33:27;;;;;;;8.35;3.20;;;;;;;;;;5016752;28;20389;-51
2022/02/17 11:36:08;;;;;;;13.38;4.07;;;;;;;;;;5016635;28;20141;-51
2022/02/17 11:38:35;;;;;;;10.80;3.58;;;;;;;;;;5016280;28;20032;-51
2022/02/17 11:41:02;;;;;;;15.15;4.35;;;;;;;;;;5016517;28;20512;-52
2022/02/17 11:43:29;;;;;;;17.23;3.88;;;;;;;;;;5016554;28;20057;-51
2022/02/17 11:45:57;;;;;;;12.60;3.63;;;;;;;;;;5016461;28;20120;-51
2022/02/17 11:48:42;;;;;;;11.30;3.20;;;;;;;;;;5016941;28;20036;-51
2022/02/17 11:51:11;;;;;;;11.07;4.03;;;;;;;;;;5016323;28;20030;-52
2022/02/17 11:53:42;;;;;;;8.98;4.05;;;;;;;;;;5014976;28;20018;-52
2022/02/17 11:56:20;;;;;;;6.80;3.25;;;;;;;;;;5016315;28;20462;-51
2022/02/17 11:58:52;;;;;;;12.98;3.83;;;;;;;;;;5016293;28;20046;-51
2022/02/17 12:01:25;;;;;;;9.00;4.70;;;;;;;;;;5016333;28;20022;-51
2022/02/17 12:04:09;;;;;;;9.02;5.28;;;;;;;;;;5016043;28;20030;-51
2022/02/17 12:06:56;;;;;;;9.80;4.55;;;;;;;;;;5015956;28;20036;-51
2022/02/17 12:09:47;;;;;;;7.60;3.60;;;;;;;;;;5016332;28;20036;-52
2022/02/17 12:12:16;;;;;;;15.05;4.78;;;;;;;;;;5015811;28;20109;-51
2022/02/17 12:14:51;;;;;;;10.07;4.32;;;;;;;;;;5015935;28;20386;-51
2022/02/17 12:17:27;;;;;;;8.73;4.18;;;;;;;;;;5015738;28;20033;-51
2022/02/17 12:20:07;;;;;;;8.43;4.20;;;;;;;;;;5015701;28;20022;-51
2022/02/17 12:22:33;;;;;;;15.60;4.10;;;;;;;;;;5016270;28;20382;-52
2022/02/17 12:25:15;;;;;;;10.15;4.40;;;;;;;;;;5015744;28;20470;-51
2022/02/17 12:27:45;;;;;;;29.63;4.47;;;;;;;;;;5015705;28;20033;-52
2022/02/17 12:30:11;;;;;;;14.85;4.43;;;;;;;;;;5015633;28;20526;-51
2022/02/17 12:32:37;;;;;;;10.00;4.25;;;;;;;;;;5015452;28;20079;-53
2022/02/17 12:35:03;;;;;;;10.85;4.65;;;;;;;;;;5015651;28;20379;-53
2022/02/17 12:37:30;;;;;;;11.15;4.05;;;;;;;;;;5015845;28;20046;-52
2022/02/17 12:39:56;;;;;;;11.13;3.88;;;;;;;;;;5013497;28;20375;-52
2022/02/17 12:42:24;;;;;;;26.73;4.90;;;;;;;;;;5015092;28;20030;-52
2022/02/17 12:44:51;;;;;;;35.67;5.43;;;;;;;;;;5015327;28;20026;-53
2022/02/17 12:47:17;;;;;;;8.80;3.67;;;;;;;;;;5015202;28;20496;-53
2022/02/17 12:49:43;;;;;;;12.48;4.10;;;;;;;;;;5015073;28;20030;-52
2022/02/17 12:52:09;;;;;;;9.35;3.78;;;;;;;;;;5015110;28;20051;-52
2022/02/17 12:54:36;;;;;;;8.18;3.72;;;;;;;;;;5015193;28;20041;-52
2022/02/17 12:57:15;;;;;;;16.63;3.50;;;;;;;;;;5015188;28;20044;-52
2022/02/17 12:59:42;;;;;;;5.78;3.40;;;;;;;;;;5015036;28;20487;-52
2022/02/17 13:02:08;;;;;;;11.45;3.97;;;;;;;;;;5014971;28;20033;-51
2022/02/17 13:04:39;;;;;;;7.65;3.92;;;;;;;;;;5015272;28;20112;-52
2022/02/17 13:07:09;;;;;;;11.27;2.55;;;;;;;;;;5014814;28;20030;-52
2022/02/17 13:09:36;;;;;;;32.15;3.95;;;;;;;;;;5014781;28;20034;-51
2022/02/17 13:12:04;;;;;;;4.97;2.60;;;;;;;;;;5014914;28;20445;-52
2022/02/17 13:14:41;;;;;;;7.38;3.13;;;;;;;;;;5014685;28;20044;-53
2022/02/17 13:17:11;;;;;;;10.15;3.13;;;;;;;;;;5014696;28;20033;-51
2022/02/17 13:19:38;;;;;;;22.38;3.08;;;;;;;;;;5015012;28;20052;-52
2022/02/17 13:22:05;;;;;;;9.80;3.33;;;;;;;;;;5014896;28;20030;-53
2022/02/17 13:24:31;;;;;;;8.40;2.38;;;;;;;;;;5014546;28;20022;-57
2022/02/17 13:27:17;;;;;;;8.10;3.65;;;;;;;;;;5014745;28;20028;-56
2022/02/17 13:29:55;;;;;;;6.70;3.72;;;;;;;;;;5014699;28;20029;-51
2022/02/17 13:32:22;;;;;;;6.07;3.05;;;;;;;;;;5014724;28;20030;-52
2022/02/17 13:34:48;;;;;;;5.93;2.70;;;;;;;;;;5014487;28;20081;-51
2022/02/17 13:37:14;;;;;;;6.53;2.80;;;;;;;;;;5014702;28;20038;-52
2022/02/17 13:39:40;;;;;;;9.43;4.60;;;;;;;;;;5013831;28;20022;-53
2022/02/17 13:42:13;;;;;;;10.05;3.90;;;;;;;;;;5014289;28;20100;-54
2022/02/17 13:44:43;;;;;;;6.82;3.13;;;;;;;;;;5014225;28;20018;-53
2022/02/17 13:47:10;;;;;;;13.35;2.97;;;;;;;;;;5012614;28;20105;-53
2022/02/17 13:49:37;;;;;;;7.68;2.30;;;;;;;;;;5014055;28;20036;-53
2022/02/17 13:52:04;;;;;;;7.68;2.65;;;;;;;;;;5014303;28;20105;-53
2022/02/17 13:54:51;;;;;;;6.63;2.25;;;;;;;;;;5014424;28;20037;-52
2022/02/17 13:57:18;;;;;;;8.68;3.50;;;;;;;;;;5013896;28;20036;-53
2022/02/17 13:59:46;;;;;;;6.72;3.00;;;;;;;;;;5013988;28;20029;-55
2022/02/17 14:02:26;;;;;;;5.18;2.00;;;;;;;;;;5013819;28;20513;-53
2022/02/17 14:04:56;;;;;;;6.47;1.95;;;;;;;;;;5009632;28;20036;-54
2022/02/17 14:07:25;;;;;;;5.07;1.77;;;;;;;;;;5002509;28;20376;-54
2022/02/17 14:09:51;;;;;;;6.80;2.17;;;;;;;;;;5001708;28;20040;-52
2022/02/17 14:12:18;;;;;;;4.53;2.10;;;;;;;;;;5003777;28;20079;-53
2022/02/17 14:14:44;;;;;;;11.35;5.63;;;;;;;;;;5002651;28;20054;-52
2022/02/17 14:17:16;;;;;;;22.88;15.30;;;;;;;;;;5001884;28;20021;-51
2022/02/17 14:19:42;;;;;;;14.95;7.25;;;;;;;;;;5000134;28;20036;-53
2022/02/17 14:22:10;;;;;;;6.68;4.50;;;;;;;;;;5002106;28;20009;-53
2022/02/17 14:24:36;;;;;;;14.02;6.63;;;;;;;;;;5003383;28;20072;-53
2022/02/17 14:27:03;;;;;;;10.48;6.05;;;;;;;;;;5002095;28;20101;-52